createdAt,value
2023-04-16T00:00:35.955Z,68.22
2023-04-16T00:01:35.138Z,68.28
2023-04-16T00:02:35.349Z,68.28
2023-04-16T00:03:35.464Z,68.38
2023-04-16T00:04:35.263Z,68.26
2023-04-16T00:05:35.257Z,68.05
2023-04-16T00:06:35.302Z,68.16
2023-04-16T00:07:35.305Z,68.11
2023-04-16T00:08:35.326Z,68.26
2023-04-16T00:09:35.336Z,68.07
2023-04-16T00:10:35.386Z,67.98
2023-04-16T00:11:35.450Z,67.38
2023-04-16T00:12:35.446Z,66.99
2023-04-16T00:13:35.530Z,66.85
2023-04-16T00:14:35.535Z,66.89
2023-04-16T00:15:35.515Z,66.75
2023-04-16T00:16:35.596Z,66.56
2023-04-16T00:17:35.651Z,66.24
2023-04-16T00:18:35.731Z,65.96
2023-04-16T00:19:35.796Z,65.78
2023-04-16T00:20:35.707Z,65.76
2023-04-16T00:21:35.725Z,66.12
2023-04-16T00:22:35.749Z,66.10
2023-04-16T00:23:35.824Z,65.83
2023-04-16T00:24:35.827Z,65.82
2023-04-16T00:25:35.835Z,66.39
2023-04-16T00:26:35.869Z,66.23
2023-04-16T00:27:35.940Z,66.20
2023-04-16T00:28:36.024Z,66.37
2023-04-16T00:29:35.979Z,66.08
2023-04-16T00:30:36.123Z,65.90
2023-04-16T00:31:36.422Z,65.58
2023-04-16T00:32:36.155Z,65.57
2023-04-16T00:33:36.198Z,65.07
2023-04-16T00:34:36.225Z,65.54
2023-04-16T00:35:36.255Z,65.29
2023-04-16T00:36:36.274Z,65.04
2023-04-16T00:37:36.327Z,64.83
2023-04-16T00:38:36.510Z,64.49
2023-04-16T00:39:36.365Z,64.53
2023-04-16T00:40:36.398Z,64.01
2023-04-16T00:41:36.406Z,64.03
2023-04-16T00:42:37.549Z,64.10
2023-04-16T00:43:36.475Z,64.27
2023-04-16T00:44:36.523Z,64.46
2023-04-16T00:45:36.540Z,64.43
2023-04-16T00:46:37.001Z,64.57
2023-04-16T00:47:36.597Z,64.86
2023-04-16T00:48:36.953Z,64.51
2023-04-16T00:49:36.597Z,64.60
2023-04-16T00:50:36.679Z,64.70
2023-04-16T00:51:36.739Z,64.36
2023-04-16T00:52:36.772Z,64.51
2023-04-16T00:53:36.848Z,64.63
2023-04-16T00:54:36.860Z,64.77
2023-04-16T00:55:36.886Z,64.44
2023-04-16T00:56:36.892Z,64.43
2023-04-16T00:57:36.927Z,63.90
2023-04-16T00:58:38.028Z,64.16
2023-04-16T00:59:36.946Z,64.24
2023-04-16T01:00:37.947Z,64.19
2023-04-16T01:01:37.063Z,64.31
2023-04-16T01:02:37.211Z,64.42
2023-04-16T01:03:37.274Z,64.26
2023-04-16T01:04:37.153Z,64.04
2023-04-16T01:05:37.167Z,64.07
2023-04-16T01:06:37.247Z,63.77
2023-04-16T01:07:37.223Z,62.64
2023-04-16T01:08:37.292Z,62.50
2023-04-16T01:09:37.292Z,62.38
2023-04-16T01:10:37.284Z,62.49
2023-04-16T01:11:37.394Z,62.74
2023-04-16T01:12:37.325Z,62.80
2023-04-16T01:13:37.373Z,62.51
2023-04-16T01:14:37.392Z,62.13
2023-04-16T01:15:37.472Z,62.06
2023-04-16T01:16:38.457Z,62.68
2023-04-16T01:17:37.643Z,62.59
2023-04-16T01:18:37.592Z,62.62
2023-04-16T01:19:37.584Z,62.75
2023-04-16T01:20:37.582Z,63.40
2023-04-16T01:21:37.632Z,63.58
2023-04-16T01:22:37.696Z,63.63
2023-04-16T01:23:37.771Z,63.46
2023-04-16T01:24:37.799Z,63.35
2023-04-16T01:25:37.850Z,63.43
2023-04-16T01:26:37.906Z,63.32
2023-04-16T01:27:37.989Z,63.11
2023-04-16T01:28:37.979Z,63.74
2023-04-16T01:29:38.027Z,63.49
2023-04-16T01:30:38.136Z,63.21
2023-04-16T01:31:38.176Z,63.22
2023-04-16T01:32:38.199Z,62.95
2023-04-16T01:33:38.173Z,62.74
2023-04-16T01:34:38.180Z,62.69
2023-04-16T01:35:38.241Z,62.76
2023-04-16T01:36:38.210Z,62.83
2023-04-16T01:37:38.492Z,63.24
2023-04-16T01:38:38.259Z,63.36
2023-04-16T01:39:38.319Z,63.43
2023-04-16T01:40:38.351Z,63.58
2023-04-16T01:41:38.377Z,63.46
2023-04-16T01:42:38.455Z,63.24
2023-04-16T01:43:40.208Z,63.41
2023-04-16T01:44:38.563Z,63.58
2023-04-16T01:45:38.651Z,63.33
2023-04-16T01:46:38.665Z,63.41
2023-04-16T01:47:38.729Z,63.56
2023-04-16T01:48:38.737Z,63.78
2023-04-16T01:49:38.727Z,63.77
2023-04-16T01:50:38.790Z,63.80
2023-04-16T01:51:38.859Z,64.03
2023-04-16T01:52:38.870Z,63.79
2023-04-16T01:53:38.934Z,63.48
2023-04-16T01:54:38.966Z,63.29
2023-04-16T01:55:38.994Z,63.42
2023-04-16T01:56:38.995Z,63.42
2023-04-16T01:57:39.059Z,63.43
2023-04-16T01:58:39.104Z,63.09
2023-04-16T01:59:39.055Z,62.86
2023-04-16T02:00:40.012Z,62.76
2023-04-16T02:01:39.145Z,62.62
2023-04-16T02:02:39.287Z,62.53
2023-04-16T02:03:39.266Z,62.86
2023-04-16T02:04:39.251Z,63.01
2023-04-16T02:05:39.289Z,62.84
2023-04-16T02:06:39.360Z,62.85
2023-04-16T02:07:39.373Z,62.82
2023-04-16T02:08:39.433Z,62.44
2023-04-16T02:09:39.489Z,62.45
2023-04-16T02:10:39.583Z,62.41
2023-04-16T02:11:39.538Z,62.34
2023-04-16T02:12:39.956Z,62.22
2023-04-16T02:13:39.567Z,62.26
2023-04-16T02:14:39.583Z,62.38
2023-04-16T02:15:39.604Z,62.74
2023-04-16T02:16:40.534Z,62.84
2023-04-16T02:17:40.017Z,63.26
2023-04-16T02:18:39.647Z,63.43
2023-04-16T02:19:39.652Z,63.67
2023-04-16T02:20:39.644Z,63.52
2023-04-16T02:21:39.681Z,63.37
2023-04-16T02:22:39.678Z,63.05
2023-04-16T02:23:39.693Z,63.19
2023-04-16T02:24:39.776Z,63.52
2023-04-16T02:25:40.495Z,63.70
2023-04-16T02:26:39.803Z,63.73
2023-04-16T02:27:39.838Z,63.57
2023-04-16T02:28:39.894Z,63.47
2023-04-16T02:29:39.904Z,63.37
2023-04-16T02:30:40.067Z,63.21
2023-04-16T02:31:40.056Z,63.73
2023-04-16T02:32:40.198Z,63.97
2023-04-16T02:33:40.146Z,64.02
2023-04-16T02:34:40.290Z,63.78
2023-04-16T02:35:40.230Z,63.54
2023-04-16T02:36:40.250Z,63.24
2023-04-16T02:37:40.512Z,63.27
2023-04-16T02:38:40.395Z,63.22
2023-04-16T02:39:40.399Z,63.15
2023-04-16T02:40:42.995Z,63.13
2023-04-16T02:41:40.740Z,63.42
2023-04-16T02:42:40.733Z,63.45
2023-04-16T02:43:40.754Z,63.40
2023-04-16T02:44:40.846Z,63.20
2023-04-16T02:45:40.900Z,63.19
2023-04-16T02:46:40.888Z,63.12
2023-04-16T02:47:40.955Z,62.98
2023-04-16T02:48:40.976Z,62.99
2023-04-16T02:49:40.975Z,63.02
2023-04-16T02:50:41.009Z,63.13
2023-04-16T02:51:41.033Z,63.01
2023-04-16T02:52:41.485Z,63.06
2023-04-16T02:53:41.058Z,63.06
2023-04-16T02:54:41.109Z,63.02
2023-04-16T02:55:41.166Z,62.91
2023-04-16T02:56:41.151Z,62.78
2023-04-16T02:57:41.185Z,62.75
2023-04-16T02:58:41.265Z,62.69
2023-04-16T02:59:41.220Z,62.76
2023-04-16T03:00:41.287Z,62.66
2023-04-16T03:01:41.368Z,62.73
2023-04-16T03:02:41.433Z,62.90
2023-04-16T03:03:41.363Z,62.50
2023-04-16T03:04:41.399Z,62.25
2023-04-16T03:05:41.368Z,62.26
2023-04-16T03:06:41.443Z,62.34
2023-04-16T03:07:41.430Z,62.22
2023-04-16T03:08:41.484Z,62.33
2023-04-16T03:09:41.513Z,62.20
2023-04-16T03:10:41.580Z,62.73
2023-04-16T03:11:41.548Z,63.36
2023-04-16T03:12:41.628Z,63.65
2023-04-16T03:13:41.620Z,63.27
2023-04-16T03:14:41.665Z,63.27
2023-04-16T03:15:41.751Z,63.49
2023-04-16T03:16:41.627Z,63.66
2023-04-16T03:17:41.679Z,63.54
2023-04-16T03:18:41.863Z,63.38
2023-04-16T03:19:41.901Z,63.72
2023-04-16T03:20:41.828Z,63.95
2023-04-16T03:21:41.898Z,63.99
2023-04-16T03:22:42.012Z,64.06
2023-04-16T03:23:41.980Z,64.44
2023-04-16T03:24:42.035Z,64.36
2023-04-16T03:25:42.007Z,64.35
2023-04-16T03:26:42.024Z,64.97
2023-04-16T03:27:42.054Z,65.28
2023-04-16T03:28:42.054Z,65.60
2023-04-16T03:29:42.079Z,65.83
2023-04-16T03:30:42.160Z,65.83
2023-04-16T03:31:42.145Z,65.18
2023-04-16T03:32:42.173Z,64.34
2023-04-16T03:33:42.507Z,64.02
2023-04-16T03:34:42.225Z,63.98
2023-04-16T03:35:42.251Z,63.96
2023-04-16T03:36:42.373Z,63.79
2023-04-16T03:37:42.374Z,63.64
2023-04-16T03:38:42.458Z,63.42
2023-04-16T03:39:42.523Z,63.41
2023-04-16T03:40:42.659Z,63.29
2023-04-16T03:41:42.674Z,63.23
2023-04-16T03:42:42.725Z,63.46
2023-04-16T03:43:42.753Z,63.35
2023-04-16T03:44:42.784Z,63.46
2023-04-16T03:45:42.855Z,63.67
2023-04-16T03:46:42.907Z,64.17
2023-04-16T03:47:42.957Z,64.04
2023-04-16T03:48:42.946Z,63.83
2023-04-16T03:49:42.992Z,63.47
2023-04-16T03:50:42.996Z,63.29
2023-04-16T03:51:43.109Z,63.36
2023-04-16T03:52:43.037Z,63.30
2023-04-16T03:53:43.089Z,63.15
2023-04-16T03:54:43.111Z,63.19
2023-04-16T03:55:43.143Z,63.39
2023-04-16T03:56:43.213Z,63.63
2023-04-16T03:57:43.253Z,63.64
2023-04-16T03:58:43.259Z,63.97
2023-04-16T03:59:43.259Z,64.25
2023-04-16T04:00:44.051Z,64.28
2023-04-16T04:01:43.259Z,64.20
2023-04-16T04:04:43.436Z,65.37
2023-04-16T04:05:43.330Z,65.58
2023-04-16T04:06:43.403Z,65.99
2023-04-16T04:07:43.364Z,65.75
2023-04-16T04:08:43.427Z,65.88
2023-04-16T04:09:43.553Z,65.90
2023-04-16T04:10:43.484Z,65.91
2023-04-16T04:11:43.505Z,65.68
2023-04-16T04:12:43.513Z,66.17
2023-04-16T04:13:43.588Z,66.21
2023-04-16T04:14:43.583Z,66.20
2023-04-16T04:15:43.619Z,66.21
2023-04-16T04:16:43.764Z,66.06
2023-04-16T04:17:43.740Z,65.93
2023-04-16T04:18:44.571Z,65.53
2023-04-16T04:19:54.316Z,65.32
2023-04-16T04:20:45.494Z,65.58
2023-04-16T04:21:43.692Z,65.87
2023-04-16T04:22:43.713Z,65.90
2023-04-16T04:23:43.768Z,66.11
2023-04-16T04:24:43.678Z,66.81
2023-04-16T04:25:43.751Z,67.10
2023-04-16T04:26:43.665Z,67.22
2023-04-16T04:27:43.686Z,66.89
2023-04-16T04:28:43.668Z,66.78
2023-04-16T04:29:43.704Z,66.79
2023-04-16T04:30:43.683Z,66.60
2023-04-16T04:31:43.691Z,67.09
2023-04-16T04:32:43.726Z,67.19
2023-04-16T04:33:43.636Z,67.36
2023-04-16T04:34:43.681Z,67.41
2023-04-16T04:35:43.731Z,67.75
2023-04-16T04:36:43.720Z,67.95
2023-04-16T04:37:43.768Z,68.04
2023-04-16T04:38:43.788Z,68.26
2023-04-16T04:39:43.801Z,68.56
2023-04-16T04:40:43.828Z,68.85
2023-04-16T04:41:43.829Z,68.70
2023-04-16T04:42:44.536Z,68.49
2023-04-16T04:43:43.873Z,68.24
2023-04-16T04:44:43.931Z,68.21
2023-04-16T04:45:43.982Z,68.08
2023-04-16T04:46:44.084Z,67.86
2023-04-16T04:47:44.128Z,67.47
2023-04-16T04:48:44.113Z,67.11
2023-04-16T04:49:44.098Z,66.74
2023-04-16T04:50:44.172Z,66.35
2023-04-16T04:51:44.232Z,66.24
2023-04-16T04:52:44.251Z,66.02
2023-04-16T04:53:44.300Z,66.07
2023-04-16T04:54:44.442Z,65.83
2023-04-16T04:55:44.405Z,65.79
2023-04-16T04:56:44.411Z,65.78
2023-04-16T04:57:44.458Z,65.77
2023-04-16T04:58:44.457Z,65.94
2023-04-16T04:59:44.467Z,66.14
2023-04-16T05:00:44.603Z,66.25
2023-04-16T05:01:44.552Z,66.18
2023-04-16T05:02:44.661Z,65.94
2023-04-16T05:03:44.730Z,66.54
2023-04-16T05:04:44.655Z,66.46
2023-04-16T05:05:45.511Z,66.28
2023-04-16T05:06:44.668Z,66.23
2023-04-16T05:07:44.739Z,66.94
2023-04-16T05:08:44.744Z,67.17
2023-04-16T05:09:44.758Z,67.25
2023-04-16T05:10:44.787Z,66.99
2023-04-16T05:11:44.889Z,67.18
2023-04-16T05:12:44.901Z,66.87
2023-04-16T05:13:44.916Z,66.58
2023-04-16T05:14:44.907Z,66.26
2023-04-16T05:15:44.931Z,66.63
2023-04-16T05:16:45.016Z,66.57
2023-04-16T05:17:45.075Z,66.45
2023-04-16T05:18:45.092Z,66.59
2023-04-16T05:19:45.067Z,67.09
2023-04-16T05:20:45.129Z,66.89
2023-04-16T05:21:45.145Z,66.86
2023-04-16T05:22:45.251Z,66.64
2023-04-16T05:23:45.283Z,66.37
2023-04-16T05:24:45.304Z,66.79
2023-04-16T05:25:45.302Z,66.76
2023-04-16T05:26:45.347Z,66.35
2023-04-16T05:27:45.322Z,66.35
2023-04-16T05:28:45.591Z,66.15
2023-04-16T05:29:45.368Z,65.83
2023-04-16T05:30:45.537Z,66.04
2023-04-16T05:31:45.434Z,66.00
2023-04-16T05:32:45.522Z,66.45
2023-04-16T05:33:45.482Z,66.29
2023-04-16T05:34:45.478Z,66.09
2023-04-16T05:35:45.552Z,66.07
2023-04-16T05:36:45.626Z,65.99
2023-04-16T05:37:45.639Z,66.11
2023-04-16T05:38:45.760Z,66.49
2023-04-16T05:39:45.740Z,66.78
2023-04-16T05:40:46.518Z,67.09
2023-04-16T05:41:45.781Z,67.30
2023-04-16T05:42:45.796Z,67.20
2023-04-16T05:43:45.814Z,67.11
2023-04-16T05:44:45.870Z,66.88
2023-04-16T05:45:45.875Z,66.50
2023-04-16T05:46:45.917Z,66.10
2023-04-16T05:47:46.051Z,66.24
2023-04-16T05:48:46.117Z,66.63
2023-04-16T05:49:46.538Z,66.35
2023-04-16T05:50:46.236Z,66.46
2023-04-16T05:51:46.206Z,66.48
2023-04-16T05:52:46.236Z,66.12
2023-04-16T05:53:46.301Z,65.64
2023-04-16T05:54:46.263Z,65.28
2023-04-16T05:55:46.356Z,64.77
2023-04-16T05:56:46.359Z,64.69
2023-04-16T05:57:46.397Z,64.55
2023-04-16T05:58:46.544Z,64.26
2023-04-16T05:59:46.458Z,64.62
2023-04-16T06:00:46.483Z,64.94
2023-04-16T06:01:46.548Z,64.95
2023-04-16T06:02:46.647Z,64.94
2023-04-16T06:03:46.572Z,65.11
2023-04-16T06:04:46.559Z,65.12
2023-04-16T06:05:46.686Z,65.19
2023-04-16T06:06:46.690Z,65.33
2023-04-16T06:07:46.666Z,65.47
2023-04-16T06:08:46.677Z,65.40
2023-04-16T06:09:46.761Z,65.22
2023-04-16T06:10:46.867Z,65.27
2023-04-16T06:11:46.835Z,65.02
2023-04-16T06:12:46.853Z,65.10
2023-04-16T06:13:46.888Z,65.01
2023-04-16T06:14:46.887Z,65.16
2023-04-16T06:15:46.953Z,64.90
2023-04-16T06:16:46.921Z,64.89
2023-04-16T06:17:46.987Z,64.43
2023-04-16T06:18:47.024Z,64.67
2023-04-16T06:19:46.991Z,65.09
2023-04-16T06:20:47.010Z,65.12
2023-04-16T06:21:47.028Z,65.04
2023-04-16T06:22:47.041Z,65.39
2023-04-16T06:23:47.060Z,65.84
2023-04-16T06:24:47.544Z,65.53
2023-04-16T06:25:47.127Z,65.23
2023-04-16T06:26:47.172Z,64.85
2023-04-16T06:27:47.191Z,64.46
2023-04-16T06:28:47.261Z,64.40
2023-04-16T06:29:47.261Z,64.18
2023-04-16T06:30:47.289Z,63.93
2023-04-16T06:31:47.310Z,63.63
2023-04-16T06:32:47.350Z,63.72
2023-04-16T06:33:47.393Z,63.39
2023-04-16T06:34:47.365Z,64.03
2023-04-16T06:35:47.336Z,64.09
2023-04-16T06:36:47.357Z,63.96
2023-04-16T06:37:47.372Z,63.94
2023-04-16T06:38:47.396Z,64.34
2023-04-16T06:39:47.393Z,64.20
2023-04-16T06:40:47.432Z,63.69
2023-04-16T06:41:47.441Z,63.85
2023-04-16T06:42:47.452Z,63.59
2023-04-16T06:43:47.462Z,63.29
2023-04-16T06:44:47.509Z,63.78
2023-04-16T06:45:47.577Z,63.90
2023-04-16T06:46:47.620Z,64.70
2023-04-16T06:47:47.615Z,64.92
2023-04-16T06:48:47.629Z,64.45
2023-04-16T06:49:47.658Z,63.64
2023-04-16T06:50:47.642Z,63.54
2023-04-16T06:51:47.739Z,63.52
2023-04-16T06:52:47.740Z,63.38
2023-04-16T06:53:47.775Z,63.15
2023-04-16T06:54:47.791Z,63.78
2023-04-16T06:55:47.804Z,63.40
2023-04-16T06:56:47.832Z,63.89
2023-04-16T06:57:47.846Z,63.36
2023-04-16T06:58:47.895Z,63.50
2023-04-16T06:59:47.941Z,64.01
2023-04-16T07:00:48.066Z,63.66
2023-04-16T07:01:48.175Z,63.61
2023-04-16T07:02:48.169Z,63.39
2023-04-16T07:03:48.445Z,63.09
2023-04-16T07:04:48.116Z,63.26
2023-04-16T07:05:48.141Z,63.81
2023-04-16T07:06:48.149Z,63.68
2023-04-16T07:07:48.112Z,63.80
2023-04-16T07:08:48.248Z,63.84
2023-04-16T07:09:48.152Z,63.15
2023-04-16T07:10:48.199Z,63.35
2023-04-16T07:11:48.192Z,63.10
2023-04-16T07:12:48.223Z,64.26
2023-04-16T07:13:48.229Z,63.51
2023-04-16T07:14:48.273Z,63.73
2023-04-16T07:15:48.265Z,63.77
2023-04-16T07:16:48.360Z,63.69
2023-04-16T07:17:48.338Z,63.63
2023-04-16T07:18:48.358Z,64.27
2023-04-16T07:19:48.360Z,63.52
2023-04-16T07:20:48.369Z,63.08
2023-04-16T07:21:48.453Z,62.47
2023-04-16T07:22:48.531Z,62.61
2023-04-16T07:23:48.580Z,64.22
2023-04-16T07:24:48.485Z,62.51
2023-04-16T07:25:48.535Z,62.20
2023-04-16T07:26:48.521Z,62.30
2023-04-16T07:27:48.548Z,62.51
2023-04-16T07:28:48.564Z,62.37
2023-04-16T07:29:48.683Z,62.54
2023-04-16T07:30:48.652Z,62.55
2023-04-16T07:31:48.752Z,62.24
2023-04-16T07:32:48.792Z,62.03
2023-04-16T07:33:48.762Z,62.08
2023-04-16T07:34:48.774Z,62.94
2023-04-16T07:35:49.112Z,63.02
2023-04-16T07:36:48.786Z,61.55
2023-04-16T07:37:48.903Z,62.41
2023-04-16T07:38:48.802Z,62.88
2023-04-16T07:39:48.872Z,62.29
2023-04-16T07:40:48.887Z,61.51
2023-04-16T07:41:48.917Z,61.78
2023-04-16T07:42:48.986Z,62.03
2023-04-16T07:43:49.005Z,61.11
2023-04-16T07:44:49.568Z,60.67
2023-04-16T07:45:49.001Z,61.50
2023-04-16T07:46:49.049Z,62.37
2023-04-16T07:47:49.097Z,61.78
2023-04-16T07:48:49.064Z,61.30
2023-04-16T07:49:49.084Z,62.13
2023-04-16T07:50:49.073Z,61.93
2023-04-16T07:51:49.130Z,60.78
2023-04-16T07:52:49.164Z,61.21
2023-04-16T07:53:49.237Z,61.09
2023-04-16T07:54:49.245Z,60.61
2023-04-16T07:55:49.268Z,61.60
2023-04-16T07:56:49.281Z,60.40
2023-04-16T07:57:49.307Z,60.31
2023-04-16T07:58:49.322Z,60.21
2023-04-16T07:59:49.349Z,61.06
2023-04-16T08:00:50.997Z,60.79
2023-04-16T08:01:49.439Z,60.58
2023-04-16T08:02:49.598Z,60.70
2023-04-16T08:03:49.646Z,60.28
2023-04-16T08:04:49.573Z,60.76
2023-04-16T08:05:49.588Z,58.88
2023-04-16T08:06:49.577Z,59.12
2023-04-16T08:07:49.642Z,58.51
2023-04-16T08:08:49.672Z,59.63
2023-04-16T08:09:49.678Z,59.15
2023-04-16T08:10:50.164Z,59.90
2023-04-16T08:11:49.745Z,59.82
2023-04-16T08:12:49.746Z,58.49
2023-04-16T08:13:49.846Z,58.71
2023-04-16T08:14:49.824Z,58.16
2023-04-16T08:15:50.065Z,58.41
2023-04-16T08:16:49.949Z,58.63
2023-04-16T08:17:50.087Z,59.03
2023-04-16T08:18:50.064Z,58.39
2023-04-16T08:19:50.046Z,58.29
2023-04-16T08:20:50.154Z,58.19
2023-04-16T08:21:50.122Z,57.77
2023-04-16T08:22:50.169Z,57.90
2023-04-16T08:23:50.215Z,58.92
2023-04-16T08:24:50.201Z,57.51
2023-04-16T08:25:51.762Z,57.92
2023-04-16T08:26:50.232Z,57.54
2023-04-16T08:27:50.281Z,58.25
2023-04-16T08:28:50.552Z,57.31
2023-04-16T08:29:50.383Z,56.85
2023-04-16T08:30:50.435Z,56.68
2023-04-16T08:31:50.521Z,55.93
2023-04-16T08:32:50.660Z,55.69
2023-04-16T08:33:50.655Z,56.03
2023-04-16T08:34:50.592Z,56.00
2023-04-16T08:35:51.558Z,55.66
2023-04-16T08:36:50.649Z,56.45
2023-04-16T08:37:50.669Z,56.67
2023-04-16T08:38:50.750Z,56.96
2023-04-16T08:39:50.754Z,55.70
2023-04-16T08:40:51.594Z,55.80
2023-04-16T08:41:50.885Z,55.75
2023-04-16T08:42:50.920Z,55.39
2023-04-16T08:43:50.931Z,55.23
2023-04-16T08:44:50.988Z,54.77
2023-04-16T08:45:50.969Z,54.56
2023-04-16T08:46:51.001Z,54.82
2023-04-16T08:47:51.166Z,53.76
2023-04-16T08:48:51.079Z,54.21
2023-04-16T08:49:51.099Z,54.49
2023-04-16T08:50:52.235Z,54.60
2023-04-16T08:51:51.182Z,54.38
2023-04-16T08:52:51.241Z,54.19
2023-04-16T08:53:51.273Z,53.99
2023-04-16T08:54:56.512Z,53.83
2023-04-16T08:55:52.351Z,53.26
2023-04-16T08:56:51.308Z,53.44
2023-04-16T08:57:51.282Z,53.05
2023-04-16T08:58:51.281Z,53.29
2023-04-16T08:59:51.285Z,53.39
2023-04-16T09:00:51.256Z,53.38
2023-04-16T09:01:51.354Z,53.04
2023-04-16T09:02:51.298Z,52.76
2023-04-16T09:04:54.663Z,53.25
2023-04-16T09:05:54.665Z,53.42
2023-04-16T09:06:54.684Z,52.89
2023-04-16T09:07:54.695Z,52.60
2023-04-16T09:08:54.713Z,52.16
2023-04-16T09:09:54.647Z,52.22
2023-04-16T09:10:54.622Z,52.36
2023-04-16T09:11:54.625Z,53.08
2023-04-16T09:12:54.624Z,53.42
2023-04-16T09:13:54.610Z,53.51
2023-04-16T09:14:54.632Z,53.42
2023-04-16T09:15:54.630Z,52.92
2023-04-16T09:16:54.644Z,53.33
2023-04-16T09:17:54.636Z,53.14
2023-04-16T09:18:54.577Z,52.88
2023-04-16T09:19:54.570Z,53.10
2023-04-16T09:20:54.703Z,52.91
2023-04-16T09:21:54.617Z,53.86
2023-04-16T09:22:54.576Z,53.96
2023-04-16T09:23:54.598Z,54.81
2023-04-16T09:24:54.570Z,53.51
2023-04-16T09:25:54.560Z,53.05
2023-04-16T09:26:54.573Z,52.90
2023-04-16T09:27:54.571Z,52.34
2023-04-16T09:28:54.562Z,52.14
2023-04-16T09:29:54.565Z,52.84
2023-04-16T09:30:54.510Z,54.14
2023-04-16T09:31:54.555Z,53.51
2023-04-16T09:32:54.544Z,53.50
2023-04-16T09:33:54.535Z,53.09
2023-04-16T09:34:54.495Z,53.12
2023-04-16T09:35:54.489Z,53.40
2023-04-16T09:36:54.513Z,52.81
2023-04-16T09:37:54.477Z,52.82
2023-04-16T09:38:56.890Z,52.59
2023-04-16T09:39:54.505Z,51.83
2023-04-16T09:40:54.453Z,51.57
2023-04-16T09:41:54.463Z,51.80
2023-04-16T09:42:54.421Z,51.89
2023-04-16T09:43:54.453Z,52.46
2023-04-16T09:44:54.426Z,53.08
2023-04-16T09:45:54.467Z,53.61
2023-04-16T09:46:54.404Z,53.30
2023-04-16T09:47:54.457Z,54.03
2023-04-16T09:48:54.400Z,53.29
2023-04-16T09:49:54.394Z,53.77
2023-04-16T09:50:54.406Z,53.57
2023-04-16T09:51:54.393Z,54.07
2023-04-16T09:52:54.401Z,53.03
2023-04-16T09:53:54.391Z,53.10
2023-04-16T09:54:54.350Z,52.64
2023-04-16T09:55:54.374Z,51.87
2023-04-16T09:56:54.373Z,51.74
2023-04-16T09:57:54.437Z,51.73
2023-04-16T09:58:54.355Z,52.02
2023-04-16T09:59:54.327Z,54.22
2023-04-16T10:00:54.330Z,54.28
2023-04-16T10:02:14.354Z,53.44
2023-04-16T10:02:55.362Z,53.54
2023-04-16T10:03:54.471Z,53.60
2023-04-16T10:04:54.305Z,51.64
2023-04-16T10:05:54.285Z,52.39
2023-04-16T10:06:54.295Z,52.84
2023-04-16T10:07:54.237Z,52.60
2023-04-16T10:08:54.338Z,52.33
2023-04-16T10:09:54.234Z,51.72
2023-04-16T10:10:54.252Z,52.92
2023-04-16T10:11:54.262Z,52.68
2023-04-16T10:12:54.278Z,52.60
2023-04-16T10:13:54.229Z,53.47
2023-04-16T10:14:54.268Z,53.68
2023-04-16T10:15:54.305Z,53.12
2023-04-16T10:16:54.344Z,53.64
2023-04-16T10:17:54.398Z,53.89
2023-04-16T10:18:54.342Z,53.85
2023-04-16T10:19:54.363Z,53.84
2023-04-16T10:20:54.384Z,54.28
2023-04-16T10:21:54.400Z,54.15
2023-04-16T10:22:54.437Z,53.81
2023-04-16T10:23:54.528Z,54.06
2023-04-16T10:24:54.501Z,53.52
2023-04-16T10:25:56.402Z,53.38
2023-04-16T10:26:54.572Z,53.80
2023-04-16T10:27:55.507Z,54.67
2023-04-16T10:28:54.601Z,54.22
2023-04-16T10:29:54.524Z,55.17
2023-04-16T10:30:54.650Z,54.00
2023-04-16T10:31:54.514Z,54.90
2023-04-16T10:32:54.555Z,55.53
2023-04-16T10:33:54.513Z,53.44
2023-04-16T10:34:54.566Z,53.11
2023-04-16T10:36:06.794Z,54.57
2023-04-16T10:36:55.519Z,53.44
2023-04-16T10:37:54.467Z,53.28
2023-04-16T10:38:54.484Z,54.14
2023-04-16T10:39:54.482Z,54.60
2023-04-16T10:40:54.456Z,53.36
2023-04-16T10:41:54.451Z,55.00
2023-04-16T10:42:54.460Z,53.54
2023-04-16T10:43:54.431Z,53.50
2023-04-16T10:44:54.499Z,52.50
2023-04-16T10:45:54.435Z,51.92
2023-04-16T10:46:54.461Z,52.81
2023-04-16T10:47:54.451Z,51.60
2023-04-16T10:48:54.436Z,52.23
2023-04-16T10:49:54.403Z,54.06
2023-04-16T10:50:54.401Z,53.80
2023-04-16T10:51:54.367Z,52.72
2023-04-16T10:52:54.400Z,53.27
2023-04-16T10:53:54.407Z,53.74
2023-04-16T10:54:54.465Z,53.66
2023-04-16T10:55:54.487Z,55.09
2023-04-16T10:56:54.484Z,54.09
2023-04-16T10:57:54.537Z,52.75
2023-04-16T10:58:54.612Z,52.73
2023-04-16T10:59:54.644Z,52.87
2023-04-16T11:00:54.620Z,54.29
2023-04-16T11:01:54.858Z,53.30
2023-04-16T11:02:54.869Z,52.09
2023-04-16T11:03:54.904Z,53.36
2023-04-16T11:04:54.819Z,52.55
2023-04-16T11:05:54.888Z,51.98
2023-04-16T11:06:54.823Z,51.71
2023-04-16T11:07:54.884Z,52.02
2023-04-16T11:08:55.404Z,54.37
2023-04-16T11:09:54.969Z,52.12
2023-04-16T11:10:55.001Z,52.55
2023-04-16T11:11:55.056Z,51.41
2023-04-16T11:12:55.069Z,52.15
2023-04-16T11:13:55.079Z,54.14
2023-04-16T11:14:55.100Z,51.58
2023-04-16T11:15:55.150Z,52.61
2023-04-16T11:16:55.143Z,52.49
2023-04-16T11:17:55.249Z,54.52
2023-04-16T11:18:56.816Z,52.78
2023-04-16T11:19:55.260Z,51.59
2023-04-16T11:20:55.259Z,52.63
2023-04-16T11:21:55.298Z,53.01
2023-04-16T11:22:55.318Z,53.36
2023-04-16T11:23:58.561Z,51.43
2023-04-16T11:24:55.332Z,52.08
2023-04-16T11:25:55.345Z,52.09
2023-04-16T11:26:55.307Z,51.01
2023-04-16T11:27:55.335Z,50.91
2023-04-16T11:28:55.300Z,51.34
2023-04-16T11:29:55.329Z,51.58
2023-04-16T11:30:55.283Z,53.01
2023-04-16T11:31:55.380Z,51.75
2023-04-16T11:32:55.355Z,51.05
2023-04-16T11:33:55.315Z,51.76
2023-04-16T11:34:55.292Z,52.26
2023-04-16T11:35:55.282Z,50.75
2023-04-16T11:36:55.246Z,50.78
2023-04-16T11:37:55.275Z,50.90
2023-04-16T11:38:55.262Z,49.88
2023-04-16T11:39:55.261Z,52.45
2023-04-16T11:40:55.228Z,49.65
2023-04-16T11:41:55.233Z,50.47
2023-04-16T11:42:55.255Z,50.04
2023-04-16T11:43:55.235Z,50.37
2023-04-16T11:44:55.214Z,49.15
2023-04-16T11:45:55.213Z,49.96
2023-04-16T11:46:55.249Z,50.67
2023-04-16T11:47:55.356Z,51.14
2023-04-16T11:48:55.175Z,51.47
2023-04-16T11:49:55.193Z,53.47
2023-04-16T11:50:55.156Z,50.56
2023-04-16T11:51:55.179Z,51.40
2023-04-16T11:52:55.177Z,50.40
2023-04-16T11:53:55.181Z,51.45
2023-04-16T11:54:55.133Z,50.00
2023-04-16T11:55:55.142Z,51.11
2023-04-16T11:56:55.154Z,50.88
2023-04-16T11:57:55.129Z,51.09
2023-04-16T11:58:55.188Z,49.84
2023-04-16T12:00:01.361Z,50.96
2023-04-16T12:00:56.116Z,51.85
2023-04-16T12:01:55.223Z,50.92
2023-04-16T12:02:55.486Z,51.62
2023-04-16T12:03:55.404Z,50.32
2023-04-16T12:04:55.187Z,50.15
2023-04-16T12:05:55.066Z,49.71
2023-04-16T12:06:55.099Z,49.60
2023-04-16T12:07:55.104Z,50.39
2023-04-16T12:08:55.069Z,49.86
2023-04-16T12:09:55.057Z,50.65
2023-04-16T12:10:55.072Z,50.95
2023-04-16T12:11:55.042Z,50.72
2023-04-16T12:12:55.149Z,51.54
2023-04-16T12:13:55.028Z,53.61
2023-04-16T12:14:55.040Z,50.69
2023-04-16T12:15:55.008Z,51.49
2023-04-16T12:16:55.062Z,50.46
2023-04-16T12:17:55.048Z,49.76
2023-04-16T12:18:55.016Z,50.67
2023-04-16T12:19:55.016Z,51.49
2023-04-16T12:20:55.121Z,50.86
2023-04-16T12:21:55.124Z,51.59
2023-04-16T12:22:55.184Z,52.00
2023-04-16T12:23:55.207Z,51.70
2023-04-16T12:24:55.243Z,50.62
2023-04-16T12:25:55.299Z,51.46
2023-04-16T12:26:55.361Z,51.87
2023-04-16T12:27:55.400Z,52.82
2023-04-16T12:28:55.437Z,51.13
2023-04-16T12:29:55.493Z,51.52
2023-04-16T12:30:55.605Z,52.02
2023-04-16T12:31:55.549Z,51.15
2023-04-16T12:32:56.637Z,52.55
2023-04-16T12:33:55.765Z,52.87
2023-04-16T12:34:55.520Z,52.88
2023-04-16T12:35:55.526Z,53.05
2023-04-16T12:36:55.549Z,51.35
2023-04-16T12:37:55.519Z,52.29
2023-04-16T12:38:55.545Z,51.90
2023-04-16T12:39:55.502Z,52.11
2023-04-16T12:40:55.530Z,51.42
2023-04-16T12:41:55.493Z,52.41
2023-04-16T12:42:55.501Z,51.64
2023-04-16T12:43:55.487Z,52.54
2023-04-16T12:44:55.452Z,53.37
2023-04-16T12:45:55.501Z,52.81
2023-04-16T12:46:55.433Z,53.28
2023-04-16T12:47:55.479Z,52.30
2023-04-16T12:48:55.461Z,52.36
2023-04-16T12:49:55.452Z,52.16
2023-04-16T12:50:55.443Z,52.57
2023-04-16T12:51:55.415Z,52.54
2023-04-16T12:52:55.401Z,53.41
2023-04-16T12:53:55.407Z,54.41
2023-04-16T12:54:55.416Z,53.42
2023-04-16T12:55:55.486Z,53.82